Time;durP1;ratioP1;P1;durP2;ratioP2;P2;SDS_P1;SDS_P2;PMS_P1;PMS_P2;Temp;Humidity;BMP_temperature;BMP_pressure;BME280_temperature;BME280_humidity;BME280_pressure;Samples;Min_cycle;Max_cycle;Signal;HPM_P1;HPM_P2
2024/03/21 00:03:44;;;;;;;22.17;15.02;;;;;;;10.73;100.00;101999.53;10461874;28;20021;-70
2024/03/21 00:08:44;;;;;;;34.70;15.80;;;;;;;10.74;100.00;101978.69;10462557;28;20461;-69
2024/03/21 00:13:44;;;;;;;21.83;11.73;;;;;;;10.75;100.00;101966.84;10460593;28;20384;-69
2024/03/21 00:18:45;;;;;;;20.45;14.20;;;;;;;10.81;100.00;101972.41;10460917;28;20037;-69
2024/03/21 00:23:45;;;;;;;24.55;14.18;;;;;;;10.85;100.00;101992.75;10462447;28;20029;-69
2024/03/21 00:28:46;;;;;;;31.83;16.95;;;;;;;10.90;100.00;102020.16;10461085;28;20533;-70
2024/03/21 00:33:50;;;;;;;24.98;15.68;;;;;;;11.03;100.00;102016.91;10476806;28;20024;-69
2024/03/21 00:38:50;;;;;;;27.80;16.75;;;;;;;11.04;100.00;102009.63;10460595;28;20051;-69
2024/03/21 00:43:50;;;;;;;25.63;14.23;;;;;;;11.04;100.00;102009.63;10461505;28;20048;-70
2024/03/21 00:48:51;;;;;;;23.90;15.82;;;;;;;11.00;100.00;102002.84;10460500;28;20372;-70
2024/03/21 00:53:51;;;;;;;25.10;16.92;;;;;;;10.99;100.00;101998.47;10461819;28;20094;-70
2024/03/21 00:58:54;;;;;;;27.73;18.45;;;;;;;11.03;100.00;102021.47;10461156;28;20033;-70
2024/03/21 01:03:55;;;;;;;40.08;20.40;;;;;;;11.10;100.00;102022.47;10459694;28;20035;-70
2024/03/21 01:08:56;;;;;;;28.65;18.38;;;;;;;11.07;100.00;102029.13;10461227;28;20493;-70
2024/03/21 01:13:56;;;;;;;33.58;21.33;;;;;;;11.02;100.00;102031.50;10458487;28;20115;-70
2024/03/21 01:18:56;;;;;;;28.60;20.08;;;;;;;11.06;100.00;102030.13;10460495;28;20115;-70
2024/03/21 01:23:57;;;;;;;29.65;19.88;;;;;;;11.08;100.00;102021.81;10459721;28;20037;-70
2024/03/21 01:28:57;;;;;;;23.75;16.42;;;;;;;10.97;100.00;102014.88;10459594;28;20036;-70
2024/03/21 01:33:58;;;;;;;32.95;18.83;;;;;;;10.89;100.00;102017.63;10460420;28;20043;-70
2024/03/21 01:38:58;;;;;;;23.65;17.23;;;;;;;10.74;100.00;102022.06;10456928;28;20170;-69
2024/03/21 01:43:59;;;;;;;21.77;15.07;;;;;;;10.69;100.00;102012.56;10458652;28;20033;-70
2024/03/21 01:48:59;;;;;;;22.52;14.63;;;;;;;10.64;100.00;102014.09;10457936;28;20033;-70
2024/03/21 01:54:00;;;;;;;17.63;13.30;;;;;;;10.57;100.00;102016.66;10459410;28;20033;-70
2024/03/21 01:59:00;;;;;;;14.25;11.23;;;;;;;10.55;100.00;102023.25;10473493;28;20029;-69
2024/03/21 02:04:01;;;;;;;15.18;10.48;;;;;;;10.58;100.00;102028.31;10458248;28;20024;-69
2024/03/21 02:09:02;;;;;;;14.18;8.35;;;;;;;10.52;100.00;102037.97;10456575;28;20494;-70
2024/03/21 02:14:02;;;;;;;9.50;7.38;;;;;;;10.52;100.00;102029.00;10457001;28;20437;-70
2024/03/21 02:19:03;;;;;;;7.15;5.70;;;;;;;10.46;100.00;102044.94;10456031;28;20033;-70
2024/03/21 02:24:03;;;;;;;5.78;5.20;;;;;;;10.45;100.00;102051.34;10472338;28;20040;-70
2024/03/21 02:29:05;;;;;;;5.90;5.18;;;;;;;10.47;100.00;102054.75;10456800;28;20063;-70
2024/03/21 02:34:05;;;;;;;5.93;5.25;;;;;;;10.39;100.00;102062.84;10456744;28;20116;-70
2024/03/21 02:39:06;;;;;;;10.70;4.30;;;;;;;10.33;100.00;102058.09;10455952;28;20052;-70
2024/03/21 02:44:07;;;;;;;4.70;3.38;;;;;;;10.11;100.00;102047.88;10439929;28;20021;-69
2024/03/21 02:49:07;;;;;;;5.45;2.92;;;;;;;9.87;100.00;102051.38;10454904;28;20036;-69
2024/03/21 02:54:07;;;;;;;5.22;3.53;;;;;;;9.88;100.00;102070.16;10455907;28;20020;-70
2024/03/21 02:59:08;;;;;;;3.50;3.20;;;;;;;9.86;100.00;102074.03;10456592;28;20041;-70
2024/03/21 03:04:10;;;;;;;3.65;3.35;;;;;;;9.81;100.00;102089.91;10455351;28;20064;-70
2024/03/21 03:09:10;;;;;;;4.55;3.13;;;;;;;9.76;100.00;102104.78;10438071;28;20128;-69
2024/03/21 03:14:10;;;;;;;7.55;3.92;;;;;;;9.81;100.00;102112.41;10455699;28;20104;-70
2024/03/21 03:19:11;;;;;;;5.28;3.67;;;;;;;9.81;100.00;102120.53;10453393;28;20074;-69
2024/03/21 03:24:11;;;;;;;5.18;2.38;;;;;;;9.73;100.00;102131.28;10455299;28;20040;-70
2024/03/21 03:29:12;;;;;;;3.13;2.25;;;;;;;9.69;100.00;102132.63;10455379;28;20106;-70
2024/03/21 03:39:31;;;;;;;8.75;3.08;;;;;;;9.54;100.00;102144.06;10454998;28;20033;-70
2024/03/21 03:44:31;;;;;;;7.57;4.20;;;;;;;9.40;100.00;102135.69;10455782;28;20028;-70
2024/03/21 03:49:32;;;;;;;7.75;5.13;;;;;;;9.34;100.00;102149.84;10454527;28;20044;-70
2024/03/21 03:54:32;;;;;;;6.10;3.80;;;;;;;9.17;100.00;102151.59;10454871;28;20066;-70
2024/03/21 03:59:33;;;;;;;13.20;3.53;;;;;;;9.18;100.00;102161.38;10453428;28;20056;-70
2024/03/21 04:04:33;;;;;;;6.90;3.80;;;;;;;9.24;100.00;102180.50;10453497;28;20505;-70
2024/03/21 04:09:34;;;;;;;10.85;4.80;;;;;;;9.20;100.00;102179.13;10454593;28;20045;-70
2024/03/21 04:14:34;;;;;;;12.23;4.25;;;;;;;9.10;100.00;102186.50;10453076;28;20041;-70
2024/03/21 04:19:35;;;;;;;6.97;4.15;;;;;;;9.08;100.00;102194.75;10454053;28;20087;-70
2024/03/21 04:24:37;;;;;;;3.35;3.05;;;;;;;9.03;100.00;102209.72;10454769;28;20036;-69
2024/03/21 04:29:38;;;;;;;5.38;3.13;;;;;;;9.17;100.00;102211.88;10436371;28;20445;-70
2024/03/21 04:34:38;;;;;;;6.35;3.70;;;;;;;9.14;100.00;102216.75;10454356;28;20032;-70
2024/03/21 04:39:38;;;;;;;4.85;3.00;;;;;;;9.20;100.00;102233.19;10454332;28;20495;-70
2024/03/21 04:44:39;;;;;;;10.98;3.65;;;;;;;9.24;100.00;102220.22;10452604;28;20040;-70
2024/03/21 04:49:39;;;;;;;7.68;2.78;;;;;;;9.28;100.00;102227.00;10460442;28;20099;-69
2024/03/21 04:54:39;;;;;;;4.35;2.45;;;;;;;9.17;100.00;102229.97;10460617;28;20049;-70
2024/03/21 04:59:40;;;;;;;4.35;2.33;;;;;;;9.21;100.00;102242.16;10460440;28;20433;-71
2024/03/21 05:04:40;;;;;;;3.22;1.65;;;;;;;9.23;100.00;102250.97;10461110;28;20033;-70
2024/03/21 05:09:41;;;;;;;3.22;1.88;;;;;;;9.20;100.00;102262.91;10459515;28;20064;-69
2024/03/21 05:14:41;;;;;;;11.15;1.45;;;;;;;9.11;100.00;102263.00;10459390;28;20483;-70
2024/03/21 05:19:41;;;;;;;1.40;1.27;;;;;;;8.95;100.00;102256.44;10459116;28;20043;-69
2024/03/21 05:24:42;;;;;;;5.20;1.48;;;;;;;8.93;100.00;102271.09;10459573;28;20032;-70
2024/03/21 05:29:43;;;;;;;1.13;0.98;;;;;;;8.85;100.00;102277.25;10460089;28;20025;-69
2024/03/21 05:34:43;;;;;;;1.48;0.98;;;;;;;8.77;100.00;102293.38;10460000;28;20029;-69
2024/03/21 05:39:46;;;;;;;2.67;1.40;;;;;;;8.79;100.00;102299.47;10459493;28;20414;-70
2024/03/21 05:44:47;;;;;;;3.35;2.28;;;;;;;8.78;100.00;102292.38;10459703;28;20396;-69
2024/03/21 05:49:47;;;;;;;1.38;0.90;;;;;;;8.81;100.00;102298.34;10459270;28;20032;-70
2024/03/21 05:54:51;;;;;;;8.70;2.30;;;;;;;8.71;100.00;102302.94;10374106;28;20048;-70
2024/03/21 05:59:54;;;;;;;6.25;2.65;;;;;;;8.68;100.00;102313.19;10457781;28;20036;-70
2024/03/21 06:04:55;;;;;;;9.25;2.67;;;;;;;8.70;100.00;102316.59;10457197;28;20037;-69
2024/03/21 06:09:56;;;;;;;3.30;1.73;;;;;;;8.66;100.00;102324.16;10457671;28;20084;-70
2024/03/21 06:14:57;;;;;;;10.77;2.78;;;;;;;8.69;100.00;102331.94;10456755;28;20428;-69
2024/03/21 06:19:57;;;;;;;10.85;3.50;;;;;;;8.80;100.00;102330.88;10459962;28;20044;-70
2024/03/21 06:25:01;;;;;;;9.35;1.98;;;;;;;8.82;100.00;102342.41;10457255;28;20052;-70
2024/03/21 06:30:02;;;;;;;3.53;1.52;;;;;;;8.85;100.00;102336.69;10457898;28;20033;-70
2024/03/21 06:35:02;;;;;;;6.15;2.05;;;;;;;8.87;100.00;102347.34;10457038;28;20033;-70
2024/03/21 06:40:04;;;;;;;4.03;1.67;;;;;;;8.84;100.00;102346.66;10455904;28;20401;-70
2024/03/21 06:45:05;;;;;;;3.85;2.78;;;;;;;8.82;100.00;102358.59;10438376;28;20025;-70
2024/03/21 06:50:07;;;;;;;4.78;1.85;;;;;;;8.91;100.00;102362.25;10456073;28;20029;-70
2024/03/21 06:55:09;;;;;;;12.25;1.75;;;;;;;9.00;100.00;102370.31;10438093;28;20076;-70
2024/03/21 07:00:12;;;;;;;3.80;1.35;;;;;;;9.06;100.00;102376.94;10455718;28;20116;-70
2024/03/21 07:05:12;;;;;;;2.13;1.42;;;;;;;9.05;100.00;102378.78;10437701;28;20033;-70
2024/03/21 07:10:12;;;;;;;2.10;1.73;;;;;;;9.04;100.00;102397.88;10454838;28;20095;-70
2024/03/21 07:15:14;;;;;;;3.55;1.52;;;;;;;9.02;100.00;102422.34;10454696;28;20131;-70
2024/03/21 07:20:15;;;;;;;3.17;2.13;;;;;;;9.09;100.00;102422.56;10453484;28;20435;-70
2024/03/21 07:25:16;;;;;;;6.93;1.45;;;;;;;9.20;100.00;102437.75;10454092;28;20041;-70
2024/03/21 07:30:18;;;;;;;4.85;2.15;;;;;;;9.30;100.00;102433.16;10455397;28;20033;-70
2024/03/21 07:35:19;;;;;;;1.92;1.73;;;;;;;9.28;100.00;102436.00;10454261;28;20033;-70
2024/03/21 07:40:19;;;;;;;3.58;2.22;;;;;;;9.37;100.00;102439.63;10455043;28;20037;-70
2024/03/21 07:45:19;;;;;;;8.57;1.67;;;;;;;9.50;100.00;102434.72;10453043;28;20472;-70
2024/03/21 07:50:21;;;;;;;7.63;2.72;;;;;;;9.59;100.00;102421.28;10454386;28;20103;-71
2024/03/21 07:55:21;;;;;;;4.25;1.95;;;;;;;9.69;100.00;102428.31;10453402;28;20116;-70
2024/03/21 08:00:22;;;;;;;12.82;2.45;;;;;;;9.85;100.00;102427.63;10455313;28;20024;-70
2024/03/21 08:05:22;;;;;;;4.38;1.95;;;;;;;10.13;100.00;102432.94;10455540;28;20439;-70
2024/03/21 08:10:23;;;;;;;3.25;1.95;;;;;;;10.21;100.00;102449.22;10437878;28;20056;-70
2024/03/21 08:15:23;;;;;;;10.93;1.70;;;;;;;10.24;100.00;102466.03;10454015;28;20040;-70
2024/03/21 08:20:24;;;;;;;1.95;1.45;;;;;;;10.24;100.00;102462.44;10470213;28;20098;-69
2024/03/21 08:25:24;;;;;;;5.75;1.13;;;;;;;10.38;100.00;102466.50;10462065;28;20375;-70
2024/03/21 08:30:25;;;;;;;4.15;2.20;;;;;;;10.47;100.00;102484.50;10477246;28;20444;-71
2024/03/21 08:35:25;;;;;;;3.75;1.75;;;;;;;10.46;100.00;102474.66;10461256;28;20033;-70
2024/03/21 08:40:25;;;;;;;4.50;1.70;;;;;;;10.52;100.00;102474.03;10462177;28;20049;-70
2024/03/21 08:45:26;;;;;;;3.03;1.95;;;;;;;10.82;100.00;102472.72;10460690;28;20065;-70
2024/03/21 08:50:26;;;;;;;12.65;2.15;;;;;;;10.94;100.00;102471.44;10459628;28;20029;-70
2024/03/21 08:55:27;;;;;;;8.98;1.80;;;;;;;11.08;100.00;102469.97;10461210;28;20029;-70
2024/03/21 09:00:27;;;;;;;1.45;1.17;;;;;;;11.12;100.00;102462.34;10476523;28;20515;-70
2024/03/21 09:05:28;;;;;;;3.00;1.63;;;;;;;11.03;100.00;102482.31;10459799;28;20065;-70
2024/03/21 09:10:28;;;;;;;4.05;1.98;;;;;;;10.87;100.00;102491.19;10458721;28;20036;-70
2024/03/21 09:15:29;;;;;;;5.82;1.73;;;;;;;10.82;100.00;102498.97;10459928;28;20487;-70
2024/03/21 09:20:29;;;;;;;3.97;1.95;;;;;;;10.91;100.00;102501.56;10458693;28;20480;-70
2024/03/21 09:25:29;;;;;;;11.02;2.08;;;;;;;10.93;100.00;102510.38;10459577;28;20029;-70
2024/03/21 09:30:30;;;;;;;8.80;3.22;;;;;;;10.96;100.00;102511.06;10459431;28;20037;-70
2024/03/21 09:35:30;;;;;;;1.70;1.17;;;;;;;11.00;100.00;102515.16;10457170;28;20040;-70
2024/03/21 09:40:31;;;;;;;1.38;1.15;;;;;;;11.11;100.00;102506.75;10458413;28;20029;-71
2024/03/21 09:45:31;;;;;;;3.78;2.13;;;;;;;11.23;100.00;102529.88;10458420;28;20036;-70
2024/03/21 09:50:32;;;;;;;3.20;1.27;;;;;;;11.20;100.00;102540.16;10458747;28;20476;-70
2024/03/21 09:55:33;;;;;;;2.45;1.48;;;;;;;11.10;100.00;102548.41;10458803;28;20056;-71
2024/03/21 10:00:33;;;;;;;15.00;1.98;;;;;;;11.07;100.00;102559.56;10457182;28;20037;-71
2024/03/21 10:05:34;;;;;;;4.90;1.80;;;;;;;11.07;100.00;102570.41;10440014;28;20025;-71
2024/03/21 10:10:34;;;;;;;6.63;1.80;;;;;;;11.01;100.00;102579.19;10458005;28;20439;-70
2024/03/21 10:15:36;;;;;;;3.00;1.15;;;;;;;10.97;100.00;102577.81;10456962;28;20048;-70
2024/03/21 10:20:36;;;;;;;2.45;1.38;;;;;;;10.92;100.00;102581.88;10440379;28;20422;-70
2024/03/21 10:25:37;;;;;;;11.40;1.20;;;;;;;11.14;100.00;102566.09;10456995;28;20108;-71
2024/03/21 10:30:37;;;;;;;1.00;1.00;;;;;;;11.20;100.00;102557.31;10456031;28;20036;-70
2024/03/21 10:35:38;;;;;;;2.92;1.48;;;;;;;11.11;100.00;102561.81;10456949;28;20135;-70
2024/03/21 10:40:40;;;;;;;4.50;1.30;;;;;;;11.06;100.00;102558.72;10455389;28;20104;-70
2024/03/21 10:45:43;;;;;;;2.97;1.90;;;;;;;11.29;100.00;102561.72;10454939;28;20083;-70
2024/03/21 10:50:44;;;;;;;1.00;0.98;;;;;;;11.49;100.00;102545.25;10439398;28;20112;-70
2024/03/21 10:55:45;;;;;;;2.58;1.23;;;;;;;11.64;100.00;102549.84;10456166;28;20048;-70
2024/03/21 11:00:55;;;;;;;0.90;0.90;;;;;;;11.81;100.00;102547.22;10456202;28;20032;-70
2024/03/21 11:05:58;;;;;;;2.38;1.73;;;;;;;11.92;100.00;102556.94;10454899;28;20028;-70
2024/03/21 11:10:59;;;;;;;2.45;2.25;;;;;;;11.91;100.00;102564.25;10455774;28;20128;-71
2024/03/21 11:15:59;;;;;;;1.27;1.10;;;;;;;11.79;100.00;102584.53;10455132;28;20404;-70
2024/03/21 11:21:00;;;;;;;2.30;1.80;;;;;;;11.65;100.00;102586.00;10455651;28;20025;-71
2024/03/21 11:26:00;;;;;;;5.68;2.88;;;;;;;11.50;100.00;102583.03;10454286;28;20530;-71
2024/03/21 11:31:02;;;;;;;2.17;1.98;;;;;;;11.40;100.00;102580.47;10454401;28;20365;-70
2024/03/21 11:36:03;;;;;;;4.13;1.95;;;;;;;11.46;100.00;102583.53;10455121;28;20032;-71
2024/03/21 11:41:04;;;;;;;2.00;1.83;;;;;;;11.48;100.00;102595.91;10454047;28;20043;-70
2024/03/21 11:46:04;;;;;;;1.23;1.15;;;;;;;11.38;100.00;102595.19;10437895;28;20040;-71
2024/03/21 11:51:05;;;;;;;3.45;1.27;;;;;;;11.28;100.00;102586.31;10454479;28;20441;-71
2024/03/21 11:56:05;;;;;;;1.92;1.63;;;;;;;11.17;100.00;102585.59;10457229;28;20459;-71
2024/03/21 12:01:06;;;;;;;2.15;1.95;;;;;;;11.20;100.00;102584.44;10463367;28;20480;-71
2024/03/21 12:06:06;;;;;;;4.30;1.92;;;;;;;11.23;100.00;102567.84;10461446;28;20074;-71
2024/03/21 12:11:13;;;;;;;7.82;1.50;;;;;;;11.29;100.00;102563.59;10444608;28;20365;-70
2024/03/21 12:16:20;;;;;;;3.63;2.53;;;;;;;11.39;100.00;102562.50;10461630;28;20043;-70
2024/03/21 12:21:21;;;;;;;8.15;2.05;;;;;;;11.37;100.00;102563.66;10444272;28;20107;-70
2024/03/21 12:26:21;;;;;;;4.38;2.05;;;;;;;11.38;100.00;102579.75;10462069;28;20041;-71
2024/03/21 12:31:22;;;;;;;5.43;2.25;;;;;;;11.38;100.00;102571.63;10459717;28;20115;-71
2024/03/21 12:36:22;;;;;;;3.60;2.83;;;;;;;11.40;100.00;102561.47;10443550;28;20028;-70
2024/03/21 12:41:23;;;;;;;2.70;2.08;;;;;;;11.50;100.00;102561.34;10460349;28;20112;-71
2024/03/21 12:46:23;;;;;;;3.05;2.80;;;;;;;11.62;100.00;102561.91;10459870;28;20029;-71
2024/03/21 12:51:24;;;;;;;2.35;1.92;;;;;;;12.19;100.00;102562.09;10444774;28;20106;-71
2024/03/21 12:56:25;;;;;;;9.27;2.83;;;;;;;12.54;100.00;102543.78;10460398;28;20412;-71
2024/03/21 13:01:25;;;;;;;2.17;1.98;;;;;;;12.74;100.00;102539.69;10460908;28;20076;-71
2024/03/21 13:06:26;;;;;;;2.70;2.05;;;;;;;12.85;100.00;102529.47;10459931;28;20456;-71
2024/03/21 13:11:29;;;;;;;4.32;2.00;;;;;;;12.76;100.00;102521.34;10460854;28;20072;-70
2024/03/21 13:16:30;;;;;;;4.18;3.25;;;;;;;12.42;100.00;102509.81;10443868;28;20578;-71
2024/03/21 13:21:30;;;;;;;11.70;3.33;;;;;;;12.76;100.00;102513.19;10460685;28;20091;-71
2024/03/21 13:26:31;;;;;;;3.58;3.35;;;;;;;12.97;100.00;102499.00;10460377;28;20040;-71
2024/03/21 13:31:33;;;;;;;5.65;5.15;;;;;;;12.85;100.00;102502.28;10460972;28;20514;-71
2024/03/21 13:36:33;;;;;;;4.05;3.47;;;;;;;12.54;100.00;102494.88;10458352;28;20041;-71
2024/03/21 13:41:34;;;;;;;5.90;4.75;;;;;;;12.56;100.00;102493.66;10459747;28;20033;-71
2024/03/21 13:46:34;;;;;;;6.95;3.78;;;;;;;12.92;100.00;102504.16;10457731;28;20075;-71
2024/03/21 13:51:35;;;;;;;3.28;2.97;;;;;;;13.12;100.00;102503.75;10456940;28;20479;-71
2024/03/21 13:56:35;;;;;;;2.70;2.50;;;;;;;12.94;100.00;102488.47;10458302;28;20045;-71
2024/03/21 14:01:36;;;;;;;4.82;3.20;;;;;;;12.73;100.00;102490.91;10457805;28;20024;-71
2024/03/21 14:06:37;;;;;;;3.97;3.25;;;;;;;12.63;100.00;102484.81;10442429;28;20310;-71
2024/03/21 14:11:37;;;;;;;3.38;2.70;;;;;;;12.44;100.00;102477.88;10457667;28;20102;-72
2024/03/21 14:16:38;;;;;;;3.08;2.80;;;;;;;12.54;100.00;102462.25;10474274;28;20044;-71
2024/03/21 14:21:38;;;;;;;4.40;2.55;;;;;;;12.33;100.00;102465.50;10438980;28;20044;-71
2024/03/21 14:26:38;;;;;;;9.95;2.92;;;;;;;12.26;100.00;102468.03;10456640;28;20478;-71
2024/03/21 14:31:39;;;;;;;2.85;2.67;;;;;;;12.70;100.00;102447.75;10456769;28;20024;-71
2024/03/21 14:36:42;;;;;;;7.72;2.75;;;;;;;12.75;100.00;102462.53;10456478;28;20131;-71
2024/03/21 14:41:43;;;;;;;1.77;1.67;;;;;;;12.52;100.00;102454.25;10456642;28;20372;-71
2024/03/21 14:46:43;;;;;;;7.82;2.88;;;;;;;12.59;100.00;102454.41;10456636;28;20131;-71
2024/03/21 14:51:44;;;;;;;7.53;3.03;;;;;;;12.59;100.00;102461.72;10455256;28;20110;-71
2024/03/21 14:56:44;;;;;;;4.40;3.65;;;;;;;12.59;100.00;102429.97;10456239;28;20036;-71
2024/03/21 15:01:45;;;;;;;5.00;4.13;;;;;;;12.40;100.00;102423.03;10455666;28;20048;-71
2024/03/21 15:06:45;;;;;;;6.95;3.20;;;;;;;12.28;100.00;102437.97;10454250;28;20040;-71
2024/03/21 15:11:49;;;;;;;5.32;2.97;;;;;;;12.37;100.00;102422.53;10455631;28;20136;-71
2024/03/21 15:16:49;;;;;;;3.20;2.90;;;;;;;12.26;100.00;102426.47;10471188;28;20065;-71
2024/03/21 15:21:50;;;;;;;3.03;2.75;;;;;;;12.35;100.00;102414.56;10454868;28;20470;-71
2024/03/21 15:26:50;;;;;;;7.03;4.03;;;;;;;12.19;100.00;102412.72;10455277;28;20457;-71
2024/03/21 15:31:51;;;;;;;4.97;4.47;;;;;;;12.31;100.00;102411.31;10455028;28;20025;-71
2024/03/21 15:36:51;;;;;;;4.15;3.83;;;;;;;12.59;100.00;102408.22;10454057;28;20029;-71
2024/03/21 15:41:52;;;;;;;7.70;4.03;;;;;;;12.51;100.00;102394.66;10455197;28;20029;-71
2024/03/21 15:46:52;;;;;;;3.60;3.38;;;;;;;12.60;100.00;102401.75;10470048;28;20059;-71
2024/03/21 15:51:52;;;;;;;3.80;3.40;;;;;;;12.62;100.00;102407.88;10453642;28;20124;-71
2024/03/21 15:56:53;;;;;;;8.68;3.38;;;;;;;12.57;100.00;102412.97;10452599;28;20044;-71
2024/03/21 16:01:53;;;;;;;5.07;3.95;;;;;;;12.32;100.00;102415.75;10453693;28;20036;-71
2024/03/21 16:06:53;;;;;;;3.47;3.13;;;;;;;12.16;100.00;102415.78;10455441;28;20033;-71
2024/03/21 16:11:54;;;;;;;6.20;4.80;;;;;;;12.20;100.00;102417.13;10453034;28;20045;-70
2024/03/21 16:16:55;;;;;;;5.93;5.28;;;;;;;12.24;100.00;102401.31;10453756;28;20029;-71
2024/03/21 16:21:55;;;;;;;7.88;4.20;;;;;;;12.25;100.00;102389.44;10436179;28;20071;-71
2024/03/21 16:26:56;;;;;;;5.90;4.47;;;;;;;12.13;100.00;102390.84;10453508;28;20076;-71
2024/03/21 16:31:56;;;;;;;6.28;3.92;;;;;;;12.09;100.00;102374.88;10453437;28;20029;-71
2024/03/21 16:36:57;;;;;;;3.30;3.05;;;;;;;12.12;100.00;102364.69;10452328;28;20114;-71
2024/03/21 16:42:00;;;;;;;3.80;3.10;;;;;;;12.07;100.00;102362.50;10453999;28;20396;-71
2024/03/21 16:47:01;;;;;;;3.40;3.08;;;;;;;12.01;100.00;102341.47;10460761;28;20114;-71
2024/03/21 16:52:03;;;;;;;6.80;3.80;;;;;;;12.09;100.00;102352.28;10460172;28;20123;-71
2024/03/21 16:57:03;;;;;;;3.97;3.55;;;;;;;11.78;100.00;102363.84;10463415;28;20036;-71
2024/03/21 17:02:04;;;;;;;4.05;3.65;;;;;;;11.74;100.00;102373.34;10461359;28;20025;-71
2024/03/21 17:07:04;;;;;;;6.72;3.97;;;;;;;11.70;100.00;102371.13;10459749;28;20069;-71
2024/03/21 17:12:05;;;;;;;4.00;3.65;;;;;;;11.59;100.00;102361.44;10462068;28;20045;-71
2024/03/21 17:17:07;;;;;;;4.68;4.10;;;;;;;11.35;100.00;102344.13;10461997;28;20040;-71
2024/03/21 17:22:07;;;;;;;6.70;4.72;;;;;;;11.28;100.00;102339.53;10460078;28;20429;-71
2024/03/21 17:27:10;;;;;;;5.55;5.05;;;;;;;11.22;100.00;102326.66;10458352;28;20037;-71
2024/03/21 17:32:10;;;;;;;6.82;4.88;;;;;;;11.27;100.00;102327.84;10461217;28;20033;-71
2024/03/21 17:37:11;;;;;;;5.70;4.95;;;;;;;11.26;100.00;102320.72;10460293;28;20033;-71
2024/03/21 17:42:11;;;;;;;5.32;4.70;;;;;;;11.24;100.00;102325.47;10441796;28;20403;-71
2024/03/21 17:47:12;;;;;;;7.18;5.55;;;;;;;11.15;100.00;102321.88;10459062;28;20029;-71
2024/03/21 17:52:12;;;;;;;7.95;5.63;;;;;;;11.00;100.00;102304.56;10458220;28;20094;-71
2024/03/21 17:57:13;;;;;;;6.45;5.82;;;;;;;11.03;100.00;102301.53;10457546;28;20441;-71
2024/03/21 18:02:13;;;;;;;6.70;5.50;;;;;;;11.03;100.00;102301.53;10441843;28;20451;-71
2024/03/21 18:07:14;;;;;;;17.10;7.47;;;;;;;11.04;100.00;102300.53;10457565;28;20067;-71
2024/03/21 18:12:14;;;;;;;9.45;6.88;;;;;;;10.98;100.00;102303.91;10456737;28;20052;-71
2024/03/21 18:17:14;;;;;;;12.43;7.30;;;;;;;11.07;100.00;102305.63;10457855;28;20040;-71
2024/03/21 18:22:15;;;;;;;16.58;7.72;;;;;;;11.11;100.00;102303.41;10472489;28;20035;-71
2024/03/21 18:27:15;;;;;;;8.10;6.90;;;;;;;11.13;100.00;102301.38;10458378;28;20037;-71
2024/03/21 18:32:16;;;;;;;14.70;7.30;;;;;;;11.13;100.00;102293.25;10457311;28;20055;-71
2024/03/21 18:37:16;;;;;;;12.07;8.73;;;;;;;11.05;100.00;102290.53;10458221;28;20074;-70
2024/03/21 18:42:16;;;;;;;7.60;6.70;;;;;;;11.09;100.00;102281.03;10455573;28;20453;-71
2024/03/21 18:47:18;;;;;;;13.23;8.15;;;;;;;11.10;100.00;102278.19;10457673;28;20116;-71
2024/03/21 18:52:18;;;;;;;10.95;8.13;;;;;;;10.97;100.00;102275.09;10457855;28;20024;-71
2024/03/21 18:57:19;;;;;;;10.88;7.65;;;;;;;11.10;100.00;102275.47;10455324;28;20431;-71
2024/03/21 19:02:19;;;;;;;7.80;7.03;;;;;;;11.09;100.00;102271.03;10455900;28;20037;-71
2024/03/21 19:07:20;;;;;;;16.92;6.50;;;;;;;11.09;100.00;102265.63;10456184;28;20064;-71
2024/03/21 19:12:20;;;;;;;11.30;8.20;;;;;;;11.14;100.00;102273.25;10454448;28;20080;-71
2024/03/21 19:17:21;;;;;;;12.73;8.02;;;;;;;11.21;100.00;102279.72;10456091;28;20033;-71
2024/03/21 19:22:24;;;;;;;8.90;7.47;;;;;;;11.22;100.00;102270.53;10438502;28;20033;-71
2024/03/21 19:27:25;;;;;;;15.48;7.22;;;;;;;11.28;100.00;102274.47;10454091;28;20057;-71
2024/03/21 19:32:26;;;;;;;13.52;8.00;;;;;;;11.25;100.00;102262.06;10454439;28;20159;-72
2024/03/21 19:37:26;;;;;;;13.10;8.15;;;;;;;11.15;100.00;102247.84;10437613;28;20231;-70
2024/03/21 19:42:27;;;;;;;10.23;7.75;;;;;;;11.21;100.00;102247.16;10455066;28;20029;-71
2024/03/21 19:47:27;;;;;;;11.23;7.70;;;;;;;11.11;100.00;102235.66;10453914;28;20029;-71
2024/03/21 19:52:28;;;;;;;11.20;8.27;;;;;;;11.13;100.00;102241.72;10454450;28;20025;-71
2024/03/21 19:57:28;;;;;;;10.85;8.63;;;;;;;11.07;100.00;102242.41;10454081;28;20056;-72
2024/03/21 20:02:29;;;;;;;15.32;8.40;;;;;;;11.06;100.00;102229.88;10454125;28;20057;-73
2024/03/21 20:07:29;;;;;;;12.90;9.00;;;;;;;11.03;100.00;102224.78;10452926;28;20162;-71
2024/03/21 20:12:30;;;;;;;13.05;8.98;;;;;;;11.00;100.00;102220.53;10454541;28;20132;-72
2024/03/21 20:17:30;;;;;;;14.77;9.35;;;;;;;11.03;100.00;102211.22;10455627;28;20044;-71
2024/03/21 20:22:33;;;;;;;13.23;10.95;;;;;;;11.05;100.00;102215.47;10462514;28;20124;-71
2024/03/21 20:27:33;;;;;;;14.95;11.48;;;;;;;11.05;100.00;102211.91;10478343;28;20427;-72
2024/03/21 20:32:34;;;;;;;22.02;12.23;;;;;;;11.02;100.00;102204.97;10462539;28;20060;-71
2024/03/21 20:37:34;;;;;;;24.27;17.08;;;;;;;10.99;100.00;102196.31;10461607;28;20025;-70
2024/03/21 20:42:35;;;;;;;25.25;16.63;;;;;;;11.08;100.00;102187.19;10461373;28;20029;-71
2024/03/21 20:47:36;;;;;;;25.60;16.83;;;;;;;11.02;100.00;102177.00;10461169;28;20625;-70
2024/03/21 20:52:36;;;;;;;25.30;16.58;;;;;;;10.92;100.00;102159.06;10460873;28;20135;-71
2024/03/21 20:57:36;;;;;;;26.88;18.27;;;;;;;10.82;100.00;102155.66;10442613;28;20029;-71
2024/03/21 21:02:41;;;;;;;38.90;22.73;;;;;;;10.80;100.00;102154.13;10460410;28;20474;-71
2024/03/21 21:07:41;;;;;;;29.67;21.42;;;;;;;10.78;100.00;102154.28;10461001;28;20061;-71
2024/03/21 21:12:42;;;;;;;34.42;24.23;;;;;;;10.77;100.00;102160.72;10460992;28;20049;-71
2024/03/21 21:17:42;;;;;;;38.20;26.08;;;;;;;10.78;100.00;102159.72;10443448;28;20480;-72
2024/03/21 21:22:43;;;;;;;40.97;24.13;;;;;;;10.81;100.00;102164.78;10460136;28;20032;-72
2024/03/21 21:27:43;;;;;;;41.92;26.38;;;;;;;10.88;100.00;102171.25;10475350;28;20368;-72
2024/03/21 21:32:43;;;;;;;40.13;25.67;;;;;;;10.93;100.00;102162.59;10457505;28;20071;-72
2024/03/21 21:37:44;;;;;;;44.85;26.17;;;;;;;10.99;100.00;102150.25;10458926;28;20441;-72
2024/03/21 21:42:44;;;;;;;38.28;27.15;;;;;;;11.02;100.00;102139.06;10458131;28;20071;-72
2024/03/21 21:47:45;;;;;;;57.13;33.58;;;;;;;11.11;100.00;102148.88;10459480;28;20060;-72
2024/03/21 21:52:45;;;;;;;50.80;32.28;;;;;;;11.17;100.00;102148.22;10460423;28;20104;-72
2024/03/21 21:57:45;;;;;;;61.90;30.92;;;;;;;11.22;100.00;102134.97;10459192;28;20121;-71
2024/03/21 22:02:46;;;;;;;52.10;34.97;;;;;;;11.20;100.00;102128.88;10459873;28;20472;-71
2024/03/21 22:07:46;;;;;;;47.58;31.08;;;;;;;11.21;100.00;102129.72;10457841;28;20035;-72
2024/03/21 22:12:47;;;;;;;68.53;35.38;;;;;;;11.16;100.00;102131.06;10473914;28;20126;-72
2024/03/21 22:17:48;;;;;;;59.55;35.47;;;;;;;11.12;100.00;102137.88;10461467;28;20029;-72
2024/03/21 22:22:48;;;;;;;54.20;33.20;;;;;;;11.07;100.00;102129.41;10473530;28;20083;-72
2024/03/21 22:27:49;;;;;;;56.75;35.03;;;;;;;11.06;100.00;102129.56;10456830;28;20079;-72
2024/03/21 22:32:49;;;;;;;67.20;39.35;;;;;;;11.09;100.00;102112.97;10455860;28;20456;-71
2024/03/21 22:37:50;;;;;;;67.15;38.33;;;;;;;11.14;100.00;102100.59;10456303;28;20044;-71
2024/03/21 22:42:50;;;;;;;67.72;36.70;;;;;;;11.14;100.00;102095.16;10456373;28;20025;-71
2024/03/21 22:47:50;;;;;;;57.22;36.00;;;;;;;11.18;100.00;102077.53;10454928;28;20394;-71